sensor_id;sensor_type;location;lat;lon;timestamp;P1;durP1;ratioP1;P2;durP2;ratioP2
11004;SDS011;5555;59.622;16.556;2023-02-15T00:01:30;8.23;;;7.20;;
11004;SDS011;5555;59.622;16.556;2023-02-15T00:03:56;8.83;;;6.73;;
11004;SDS011;5555;59.622;16.556;2023-02-15T00:06:22;7.17;;;6.40;;
11004;SDS011;5555;59.622;16.556;2023-02-15T00:08:48;8.43;;;7.63;;
11004;SDS011;5555;59.622;16.556;2023-02-15T00:11:15;8.87;;;7.30;;
11004;SDS011;5555;59.622;16.556;2023-02-15T00:14:03;9.90;;;8.73;;
11004;SDS011;5555;59.622;16.556;2023-02-15T00:16:29;9.63;;;7.10;;
11004;SDS011;5555;59.622;16.556;2023-02-15T00:18:55;9.87;;;7.00;;
11004;SDS011;5555;59.622;16.556;2023-02-15T00:21:21;10.83;;;7.60;;
11004;SDS011;5555;59.622;16.556;2023-02-15T00:23:46;9.50;;;7.33;;
11004;SDS011;5555;59.622;16.556;2023-02-15T00:26:12;10.00;;;8.57;;
11004;SDS011;5555;59.622;16.556;2023-02-15T00:28:38;8.97;;;7.97;;
11004;SDS011;5555;59.622;16.556;2023-02-15T00:31:07;11.70;;;7.97;;
11004;SDS011;5555;59.622;16.556;2023-02-15T00:33:35;10.00;;;7.77;;
11004;SDS011;5555;59.622;16.556;2023-02-15T00:36:03;11.20;;;9.03;;
11004;SDS011;5555;59.622;16.556;2023-02-15T00:38:31;12.23;;;8.90;;
11004;SDS011;5555;59.622;16.556;2023-02-15T00:40:57;10.67;;;9.60;;
11004;SDS011;5555;59.622;16.556;2023-02-15T00:43:25;10.10;;;8.87;;
11004;SDS011;5555;59.622;16.556;2023-02-15T00:45:52;9.87;;;8.07;;
11004;SDS011;5555;59.622;16.556;2023-02-15T00:48:17;10.37;;;9.23;;
11004;SDS011;5555;59.622;16.556;2023-02-15T00:50:54;11.20;;;9.07;;
11004;SDS011;5555;59.622;16.556;2023-02-15T00:53:22;11.13;;;9.67;;
11004;SDS011;5555;59.622;16.556;2023-02-15T00:55:48;11.30;;;9.20;;
11004;SDS011;5555;59.622;16.556;2023-02-15T00:58:14;10.13;;;8.23;;
11004;SDS011;5555;59.622;16.556;2023-02-15T01:00:40;11.57;;;8.70;;
11004;SDS011;5555;59.622;16.556;2023-02-15T01:03:08;11.23;;;9.30;;
11004;SDS011;5555;59.622;16.556;2023-02-15T01:05:34;11.27;;;10.17;;
11004;SDS011;5555;59.622;16.556;2023-02-15T01:08:00;10.80;;;9.70;;
11004;SDS011;5555;59.622;16.556;2023-02-15T01:10:26;10.87;;;8.60;;
11004;SDS011;5555;59.622;16.556;2023-02-15T01:12:52;11.37;;;10.07;;
11004;SDS011;5555;59.622;16.556;2023-02-15T01:15:19;12.07;;;9.87;;
11004;SDS011;5555;59.622;16.556;2023-02-15T01:17:45;12.60;;;9.63;;
11004;SDS011;5555;59.622;16.556;2023-02-15T01:20:16;10.37;;;9.37;;
11004;SDS011;5555;59.622;16.556;2023-02-15T01:22:42;10.00;;;9.00;;
11004;SDS011;5555;59.622;16.556;2023-02-15T01:25:08;10.90;;;9.50;;
11004;SDS011;5555;59.622;16.556;2023-02-15T01:27:34;12.27;;;9.97;;
11004;SDS011;5555;59.622;16.556;2023-02-15T01:29:59;12.20;;;9.20;;
11004;SDS011;5555;59.622;16.556;2023-02-15T01:32:25;11.70;;;8.30;;
11004;SDS011;5555;59.622;16.556;2023-02-15T01:34:51;11.47;;;8.63;;
11004;SDS011;5555;59.622;16.556;2023-02-15T01:37:17;9.87;;;8.87;;
11004;SDS011;5555;59.622;16.556;2023-02-15T01:39:43;12.50;;;9.77;;
11004;SDS011;5555;59.622;16.556;2023-02-15T01:42:12;12.83;;;8.90;;
11004;SDS011;5555;59.622;16.556;2023-02-15T01:50:18;11.33;;;8.97;;
11004;SDS011;5555;59.622;16.556;2023-02-15T01:53:12;11.80;;;9.47;;
11004;SDS011;5555;59.622;16.556;2023-02-15T01:55:50;12.37;;;9.73;;
11004;SDS011;5555;59.622;16.556;2023-02-15T01:58:24;11.27;;;9.97;;
11004;SDS011;5555;59.622;16.556;2023-02-15T02:00:52;10.67;;;9.53;;
11004;SDS011;5555;59.622;16.556;2023-02-15T02:03:26;11.43;;;9.67;;
11004;SDS011;5555;59.622;16.556;2023-02-15T02:06:16;11.90;;;10.20;;
11004;SDS011;5555;59.622;16.556;2023-02-15T02:08:42;15.17;;;10.33;;
11004;SDS011;5555;59.622;16.556;2023-02-15T02:11:12;11.20;;;9.80;;
11004;SDS011;5555;59.622;16.556;2023-02-15T02:13:41;13.67;;;10.87;;
11004;SDS011;5555;59.622;16.556;2023-02-15T02:16:23;11.20;;;9.83;;
11004;SDS011;5555;59.622;16.556;2023-02-15T02:25:17;13.73;;;10.93;;
11004;SDS011;5555;59.622;16.556;2023-02-15T02:40:09;15.27;;;11.67;;
11004;SDS011;5555;59.622;16.556;2023-02-15T02:42:15;16.50;;;12.00;;
11004;SDS011;5555;59.622;16.556;2023-02-15T02:45:02;14.23;;;11.80;;
11004;SDS011;5555;59.622;16.556;2023-02-15T02:50:11;17.90;;;12.33;;
11004;SDS011;5555;59.622;16.556;2023-02-15T02:52:50;16.27;;;12.00;;
11004;SDS011;5555;59.622;16.556;2023-02-15T02:58:14;16.37;;;13.97;;
11004;SDS011;5555;59.622;16.556;2023-02-15T03:03:36;16.87;;;13.87;;
11004;SDS011;5555;59.622;16.556;2023-02-15T03:06:09;16.43;;;12.43;;
11004;SDS011;5555;59.622;16.556;2023-02-15T03:08:50;17.37;;;14.17;;
11004;SDS011;5555;59.622;16.556;2023-02-15T03:11:19;16.27;;;13.90;;
11004;SDS011;5555;59.622;16.556;2023-02-15T03:13:45;14.97;;;13.40;;
11004;SDS011;5555;59.622;16.556;2023-02-15T03:16:13;15.77;;;13.23;;
11004;SDS011;5555;59.622;16.556;2023-02-15T03:18:52;15.17;;;13.03;;
11004;SDS011;5555;59.622;16.556;2023-02-15T03:21:41;16.27;;;12.53;;
11004;SDS011;5555;59.622;16.556;2023-02-15T03:24:15;14.13;;;11.77;;
11004;SDS011;5555;59.622;16.556;2023-02-15T03:26:45;14.40;;;12.97;;
11004;SDS011;5555;59.622;16.556;2023-02-15T03:29:15;15.53;;;11.87;;
11004;SDS011;5555;59.622;16.556;2023-02-15T03:31:45;19.93;;;12.17;;
11004;SDS011;5555;59.622;16.556;2023-02-15T03:34:13;15.13;;;12.90;;
11004;SDS011;5555;59.622;16.556;2023-02-15T03:36:44;17.27;;;13.87;;
11004;SDS011;5555;59.622;16.556;2023-02-15T03:41:39;17.67;;;12.87;;
11004;SDS011;5555;59.622;16.556;2023-02-15T03:44:25;16.67;;;12.53;;
11004;SDS011;5555;59.622;16.556;2023-02-15T03:46:53;15.37;;;12.17;;
11004;SDS011;5555;59.622;16.556;2023-02-15T03:49:54;16.33;;;12.50;;
11004;SDS011;5555;59.622;16.556;2023-02-15T03:52:29;15.30;;;12.97;;
11004;SDS011;5555;59.622;16.556;2023-02-15T03:54:56;13.80;;;11.77;;
11004;SDS011;5555;59.622;16.556;2023-02-15T03:57:23;17.00;;;12.07;;
11004;SDS011;5555;59.622;16.556;2023-02-15T04:05:45;15.33;;;13.67;;
11004;SDS011;5555;59.622;16.556;2023-02-15T04:08:11;16.47;;;12.50;;
11004;SDS011;5555;59.622;16.556;2023-02-15T04:10:37;14.77;;;12.53;;
11004;SDS011;5555;59.622;16.556;2023-02-15T04:13:40;18.57;;;12.83;;
11004;SDS011;5555;59.622;16.556;2023-02-15T04:16:04;16.97;;;13.30;;
11004;SDS011;5555;59.622;16.556;2023-02-15T04:18:48;16.27;;;13.37;;
11004;SDS011;5555;59.622;16.556;2023-02-15T04:21:32;16.47;;;12.87;;
11004;SDS011;5555;59.622;16.556;2023-02-15T04:24:17;20.90;;;14.63;;
11004;SDS011;5555;59.622;16.556;2023-02-15T04:27:02;18.00;;;15.07;;
11004;SDS011;5555;59.622;16.556;2023-02-15T04:29:29;17.40;;;13.70;;
11004;SDS011;5555;59.622;16.556;2023-02-15T04:31:57;19.33;;;15.67;;
11004;SDS011;5555;59.622;16.556;2023-02-15T04:34:23;18.77;;;15.50;;
11004;SDS011;5555;59.622;16.556;2023-02-15T04:36:49;17.90;;;15.10;;
11004;SDS011;5555;59.622;16.556;2023-02-15T04:39:15;18.50;;;14.73;;
11004;SDS011;5555;59.622;16.556;2023-02-15T04:41:42;20.27;;;15.67;;
11004;SDS011;5555;59.622;16.556;2023-02-15T04:44:08;17.33;;;15.43;;
11004;SDS011;5555;59.622;16.556;2023-02-15T04:46:33;20.83;;;15.90;;
11004;SDS011;5555;59.622;16.556;2023-02-15T04:48:59;18.53;;;15.43;;
11004;SDS011;5555;59.622;16.556;2023-02-15T04:51:25;17.53;;;15.03;;
11004;SDS011;5555;59.622;16.556;2023-02-15T04:53:50;19.67;;;15.87;;
11004;SDS011;5555;59.622;16.556;2023-02-15T04:56:20;18.87;;;16.37;;
11004;SDS011;5555;59.622;16.556;2023-02-15T04:58:45;19.20;;;16.77;;
11004;SDS011;5555;59.622;16.556;2023-02-15T05:01:11;20.47;;;17.30;;
11004;SDS011;5555;59.622;16.556;2023-02-15T05:03:37;19.67;;;16.60;;
11004;SDS011;5555;59.622;16.556;2023-02-15T05:06:03;21.33;;;16.93;;
11004;SDS011;5555;59.622;16.556;2023-02-15T05:08:29;21.93;;;17.30;;
11004;SDS011;5555;59.622;16.556;2023-02-15T05:10:55;23.80;;;17.80;;
11004;SDS011;5555;59.622;16.556;2023-02-15T05:13:21;21.23;;;17.60;;
11004;SDS011;5555;59.622;16.556;2023-02-15T05:15:47;22.17;;;17.20;;
11004;SDS011;5555;59.622;16.556;2023-02-15T05:18:14;22.23;;;16.53;;
11004;SDS011;5555;59.622;16.556;2023-02-15T05:20:40;22.10;;;17.47;;
11004;SDS011;5555;59.622;16.556;2023-02-15T05:23:05;21.20;;;16.70;;
11004;SDS011;5555;59.622;16.556;2023-02-15T05:25:31;21.63;;;17.17;;
11004;SDS011;5555;59.622;16.556;2023-02-15T05:28:15;20.60;;;15.90;;
11004;SDS011;5555;59.622;16.556;2023-02-15T05:30:50;22.43;;;17.00;;
11004;SDS011;5555;59.622;16.556;2023-02-15T05:33:37;22.67;;;16.77;;
11004;SDS011;5555;59.622;16.556;2023-02-15T05:36:03;19.00;;;15.03;;
11004;SDS011;5555;59.622;16.556;2023-02-15T05:38:29;20.63;;;16.90;;
11004;SDS011;5555;59.622;16.556;2023-02-15T05:40:55;20.93;;;16.87;;
11004;SDS011;5555;59.622;16.556;2023-02-15T05:43:20;22.10;;;17.77;;
11004;SDS011;5555;59.622;16.556;2023-02-15T05:45:47;22.00;;;16.63;;
11004;SDS011;5555;59.622;16.556;2023-02-15T05:48:14;19.80;;;16.93;;
11004;SDS011;5555;59.622;16.556;2023-02-15T05:50:40;22.73;;;17.97;;
11004;SDS011;5555;59.622;16.556;2023-02-15T05:53:06;19.13;;;16.97;;
11004;SDS011;5555;59.622;16.556;2023-02-15T05:55:31;20.40;;;16.87;;
11004;SDS011;5555;59.622;16.556;2023-02-15T05:57:57;19.27;;;16.87;;
11004;SDS011;5555;59.622;16.556;2023-02-15T06:00:22;21.33;;;16.50;;
11004;SDS011;5555;59.622;16.556;2023-02-15T06:02:48;18.73;;;16.73;;
11004;SDS011;5555;59.622;16.556;2023-02-15T06:05:14;19.20;;;16.33;;
11004;SDS011;5555;59.622;16.556;2023-02-15T06:07:42;18.73;;;15.47;;
11004;SDS011;5555;59.622;16.556;2023-02-15T06:10:09;19.07;;;16.30;;
11004;SDS011;5555;59.622;16.556;2023-02-15T06:12:35;18.63;;;13.93;;
11004;SDS011;5555;59.622;16.556;2023-02-15T06:15:00;20.53;;;16.37;;
11004;SDS011;5555;59.622;16.556;2023-02-15T06:17:26;17.73;;;15.23;;
11004;SDS011;5555;59.622;16.556;2023-02-15T06:19:52;19.00;;;16.20;;
11004;SDS011;5555;59.622;16.556;2023-02-15T06:22:17;20.90;;;16.43;;
11004;SDS011;5555;59.622;16.556;2023-02-15T06:24:43;20.53;;;16.03;;
11004;SDS011;5555;59.622;16.556;2023-02-15T06:27:09;22.97;;;16.87;;
11004;SDS011;5555;59.622;16.556;2023-02-15T06:29:35;19.83;;;15.93;;
11004;SDS011;5555;59.622;16.556;2023-02-15T06:32:01;20.23;;;16.53;;
11004;SDS011;5555;59.622;16.556;2023-02-15T06:34:27;19.40;;;15.60;;
11004;SDS011;5555;59.622;16.556;2023-02-15T06:36:52;21.97;;;16.63;;
11004;SDS011;5555;59.622;16.556;2023-02-15T06:39:18;20.50;;;16.87;;
11004;SDS011;5555;59.622;16.556;2023-02-15T06:41:43;22.37;;;16.80;;
11004;SDS011;5555;59.622;16.556;2023-02-15T06:44:09;19.47;;;16.17;;
11004;SDS011;5555;59.622;16.556;2023-02-15T06:46:34;18.00;;;14.60;;
11004;SDS011;5555;59.622;16.556;2023-02-15T06:49:00;20.83;;;16.83;;
11004;SDS011;5555;59.622;16.556;2023-02-15T06:51:26;20.33;;;14.20;;
11004;SDS011;5555;59.622;16.556;2023-02-15T06:53:51;22.17;;;16.80;;
11004;SDS011;5555;59.622;16.556;2023-02-15T06:56:17;24.57;;;17.00;;
11004;SDS011;5555;59.622;16.556;2023-02-15T06:58:42;22.13;;;16.40;;
11004;SDS011;5555;59.622;16.556;2023-02-15T07:01:10;22.87;;;17.53;;
11004;SDS011;5555;59.622;16.556;2023-02-15T07:03:36;19.77;;;15.57;;
11004;SDS011;5555;59.622;16.556;2023-02-15T07:06:02;20.60;;;16.60;;
11004;SDS011;5555;59.622;16.556;2023-02-15T07:08:31;20.77;;;15.13;;
11004;SDS011;5555;59.622;16.556;2023-02-15T07:10:56;23.47;;;17.47;;
11004;SDS011;5555;59.622;16.556;2023-02-15T07:13:42;20.73;;;16.17;;
11004;SDS011;5555;59.622;16.556;2023-02-15T07:16:08;19.63;;;15.73;;
11004;SDS011;5555;59.622;16.556;2023-02-15T07:18:35;20.17;;;16.33;;
11004;SDS011;5555;59.622;16.556;2023-02-15T07:21:00;23.53;;;17.27;;
11004;SDS011;5555;59.622;16.556;2023-02-15T07:23:26;21.20;;;17.17;;
11004;SDS011;5555;59.622;16.556;2023-02-15T07:25:58;19.73;;;15.83;;
11004;SDS011;5555;59.622;16.556;2023-02-15T07:28:25;21.20;;;17.07;;
11004;SDS011;5555;59.622;16.556;2023-02-15T07:30:50;20.97;;;17.10;;
11004;SDS011;5555;59.622;16.556;2023-02-15T07:33:16;24.67;;;17.03;;
11004;SDS011;5555;59.622;16.556;2023-02-15T07:35:49;24.33;;;16.00;;
11004;SDS011;5555;59.622;16.556;2023-02-15T07:38:15;21.83;;;14.53;;
11004;SDS011;5555;59.622;16.556;2023-02-15T07:40:41;22.93;;;17.67;;
11004;SDS011;5555;59.622;16.556;2023-02-15T07:43:08;25.27;;;15.50;;
11004;SDS011;5555;59.622;16.556;2023-02-15T07:45:34;22.23;;;17.70;;
11004;SDS011;5555;59.622;16.556;2023-02-15T07:48:00;23.53;;;17.00;;
11004;SDS011;5555;59.622;16.556;2023-02-15T07:50:26;23.93;;;17.00;;
11004;SDS011;5555;59.622;16.556;2023-02-15T07:52:52;22.10;;;17.20;;
11004;SDS011;5555;59.622;16.556;2023-02-15T07:55:17;22.73;;;17.20;;
11004;SDS011;5555;59.622;16.556;2023-02-15T07:57:44;20.27;;;15.97;;
11004;SDS011;5555;59.622;16.556;2023-02-15T08:00:11;21.10;;;16.93;;
11004;SDS011;5555;59.622;16.556;2023-02-15T08:02:41;22.10;;;16.83;;
11004;SDS011;5555;59.622;16.556;2023-02-15T08:05:07;21.00;;;16.73;;
11004;SDS011;5555;59.622;16.556;2023-02-15T08:07:33;23.03;;;17.23;;
11004;SDS011;5555;59.622;16.556;2023-02-15T08:09:59;21.57;;;16.37;;
11004;SDS011;5555;59.622;16.556;2023-02-15T08:12:28;21.43;;;17.10;;
11004;SDS011;5555;59.622;16.556;2023-02-15T08:14:53;21.90;;;16.80;;
11004;SDS011;5555;59.622;16.556;2023-02-15T08:17:19;21.17;;;16.37;;
11004;SDS011;5555;59.622;16.556;2023-02-15T08:19:45;23.37;;;17.87;;
11004;SDS011;5555;59.622;16.556;2023-02-15T08:22:12;24.40;;;17.47;;
11004;SDS011;5555;59.622;16.556;2023-02-15T08:24:39;24.30;;;17.43;;
11004;SDS011;5555;59.622;16.556;2023-02-15T08:27:06;20.30;;;15.63;;
11004;SDS011;5555;59.622;16.556;2023-02-15T08:29:34;19.77;;;16.30;;
11004;SDS011;5555;59.622;16.556;2023-02-15T08:32:03;22.80;;;16.50;;
11004;SDS011;5555;59.622;16.556;2023-02-15T08:34:34;24.47;;;16.37;;
11004;SDS011;5555;59.622;16.556;2023-02-15T08:37:02;22.03;;;15.97;;
11004;SDS011;5555;59.622;16.556;2023-02-15T08:39:28;19.60;;;16.10;;
11004;SDS011;5555;59.622;16.556;2023-02-15T08:41:54;22.30;;;16.57;;
11004;SDS011;5555;59.622;16.556;2023-02-15T08:44:20;20.43;;;16.40;;
11004;SDS011;5555;59.622;16.556;2023-02-15T08:46:46;21.40;;;17.00;;
11004;SDS011;5555;59.622;16.556;2023-02-15T08:49:15;23.37;;;17.50;;
11004;SDS011;5555;59.622;16.556;2023-02-15T08:51:45;22.77;;;16.50;;
11004;SDS011;5555;59.622;16.556;2023-02-15T08:54:12;21.37;;;16.70;;
11004;SDS011;5555;59.622;16.556;2023-02-15T08:56:40;24.27;;;17.57;;
11004;SDS011;5555;59.622;16.556;2023-02-15T08:59:11;22.90;;;17.00;;
11004;SDS011;5555;59.622;16.556;2023-02-15T09:01:39;24.20;;;17.83;;
11004;SDS011;5555;59.622;16.556;2023-02-15T09:04:05;23.97;;;17.67;;
11004;SDS011;5555;59.622;16.556;2023-02-15T09:06:35;24.20;;;18.07;;
11004;SDS011;5555;59.622;16.556;2023-02-15T09:09:04;23.77;;;17.83;;
11004;SDS011;5555;59.622;16.556;2023-02-15T09:11:32;24.07;;;18.53;;
11004;SDS011;5555;59.622;16.556;2023-02-15T09:14:01;24.53;;;18.80;;
11004;SDS011;5555;59.622;16.556;2023-02-15T09:16:29;25.47;;;17.93;;
11004;SDS011;5555;59.622;16.556;2023-02-15T09:18:56;24.07;;;18.50;;
11004;SDS011;5555;59.622;16.556;2023-02-15T09:21:22;23.50;;;18.03;;
11004;SDS011;5555;59.622;16.556;2023-02-15T09:23:50;22.70;;;17.23;;
11004;SDS011;5555;59.622;16.556;2023-02-15T09:26:17;25.40;;;17.63;;
11004;SDS011;5555;59.622;16.556;2023-02-15T09:28:45;25.47;;;18.20;;
11004;SDS011;5555;59.622;16.556;2023-02-15T09:31:16;23.40;;;17.67;;
11004;SDS011;5555;59.622;16.556;2023-02-15T09:33:44;22.23;;;17.57;;
11004;SDS011;5555;59.622;16.556;2023-02-15T09:36:30;23.23;;;17.57;;
11004;SDS011;5555;59.622;16.556;2023-02-15T09:39:10;23.43;;;17.83;;
11004;SDS011;5555;59.622;16.556;2023-02-15T09:58:32;27.17;;;19.30;;
11004;SDS011;5555;59.622;16.556;2023-02-15T10:01:37;22.77;;;17.07;;
11004;SDS011;5555;59.622;16.556;2023-02-15T10:16:01;29.43;;;17.47;;
11004;SDS011;5555;59.622;16.556;2023-02-15T10:18:45;26.37;;;18.20;;
11004;SDS011;5555;59.622;16.556;2023-02-15T10:21:33;26.67;;;17.83;;
11004;SDS011;5555;59.622;16.556;2023-02-15T10:24:29;21.67;;;15.83;;
11004;SDS011;5555;59.622;16.556;2023-02-15T10:26:59;22.77;;;18.73;;
11004;SDS011;5555;59.622;16.556;2023-02-15T10:29:54;23.90;;;17.43;;
11004;SDS011;5555;59.622;16.556;2023-02-15T10:33:07;25.90;;;17.83;;
11004;SDS011;5555;59.622;16.556;2023-02-15T11:00:23;25.90;;;18.60;;
11004;SDS011;5555;59.622;16.556;2023-02-15T11:06:07;23.23;;;16.80;;
11004;SDS011;5555;59.622;16.556;2023-02-15T11:08:37;25.93;;;18.53;;
11004;SDS011;5555;59.622;16.556;2023-02-15T11:11:10;23.90;;;17.63;;
11004;SDS011;5555;59.622;16.556;2023-02-15T11:13:40;26.17;;;18.07;;
11004;SDS011;5555;59.622;16.556;2023-02-15T11:16:12;22.13;;;15.57;;
11004;SDS011;5555;59.622;16.556;2023-02-15T11:18:50;24.47;;;18.77;;
11004;SDS011;5555;59.622;16.556;2023-02-15T11:21:22;24.80;;;18.87;;
11004;SDS011;5555;59.622;16.556;2023-02-15T11:23:51;24.43;;;18.37;;
11004;SDS011;5555;59.622;16.556;2023-02-15T11:28:56;22.30;;;16.93;;
11004;SDS011;5555;59.622;16.556;2023-02-15T11:31:51;23.53;;;17.90;;
11004;SDS011;5555;59.622;16.556;2023-02-15T11:34:40;21.20;;;16.23;;
11004;SDS011;5555;59.622;16.556;2023-02-15T11:37:36;22.87;;;16.97;;
11004;SDS011;5555;59.622;16.556;2023-02-15T11:40:32;25.33;;;17.97;;
11004;SDS011;5555;59.622;16.556;2023-02-15T11:43:48;20.43;;;16.60;;
11004;SDS011;5555;59.622;16.556;2023-02-15T11:45:51;24.77;;;17.83;;
11004;SDS011;5555;59.622;16.556;2023-02-15T11:48:16;20.60;;;17.20;;
11004;SDS011;5555;59.622;16.556;2023-02-15T11:50:42;22.83;;;17.87;;
11004;SDS011;5555;59.622;16.556;2023-02-15T11:53:12;23.67;;;17.40;;
11004;SDS011;5555;59.622;16.556;2023-02-15T11:55:41;21.70;;;15.97;;
11004;SDS011;5555;59.622;16.556;2023-02-15T11:58:16;24.17;;;16.50;;
11004;SDS011;5555;59.622;16.556;2023-02-15T12:01:14;21.60;;;16.30;;
11004;SDS011;5555;59.622;16.556;2023-02-15T12:04:44;19.97;;;15.37;;
11004;SDS011;5555;59.622;16.556;2023-02-15T12:06:55;21.10;;;15.90;;
11004;SDS011;5555;59.622;16.556;2023-02-15T12:09:46;20.93;;;15.97;;
11004;SDS011;5555;59.622;16.556;2023-02-15T12:12:32;23.83;;;16.57;;
11004;SDS011;5555;59.622;16.556;2023-02-15T12:15:07;20.07;;;15.07;;
11004;SDS011;5555;59.622;16.556;2023-02-15T12:17:37;24.07;;;16.70;;
11004;SDS011;5555;59.622;16.556;2023-02-15T12:20:06;19.90;;;14.33;;
11004;SDS011;5555;59.622;16.556;2023-02-15T12:25:48;22.77;;;16.80;;
11004;SDS011;5555;59.622;16.556;2023-02-15T12:34:02;20.77;;;15.17;;
11004;SDS011;5555;59.622;16.556;2023-02-15T12:36:47;21.93;;;15.97;;
11004;SDS011;5555;59.622;16.556;2023-02-15T12:39:37;24.57;;;17.50;;
11004;SDS011;5555;59.622;16.556;2023-02-15T12:42:18;23.93;;;18.10;;
11004;SDS011;5555;59.622;16.556;2023-02-15T12:47:21;25.97;;;18.47;;
11004;SDS011;5555;59.622;16.556;2023-02-15T12:52:41;24.37;;;18.00;;
11004;SDS011;5555;59.622;16.556;2023-02-15T12:55:19;24.97;;;17.97;;
11004;SDS011;5555;59.622;16.556;2023-02-15T13:00:42;21.63;;;16.90;;
11004;SDS011;5555;59.622;16.556;2023-02-15T13:03:15;22.37;;;16.43;;
11004;SDS011;5555;59.622;16.556;2023-02-15T13:05:48;24.97;;;18.00;;
11004;SDS011;5555;59.622;16.556;2023-02-15T13:13:47;21.23;;;15.70;;
11004;SDS011;5555;59.622;16.556;2023-02-15T13:16:19;24.07;;;16.80;;
11004;SDS011;5555;59.622;16.556;2023-02-15T13:18:54;24.27;;;16.23;;
11004;SDS011;5555;59.622;16.556;2023-02-15T13:21:26;25.43;;;16.27;;
11004;SDS011;5555;59.622;16.556;2023-02-15T13:23:57;23.03;;;15.80;;
11004;SDS011;5555;59.622;16.556;2023-02-15T13:26:32;22.47;;;16.53;;
11004;SDS011;5555;59.622;16.556;2023-02-15T13:29:07;22.50;;;17.00;;
11004;SDS011;5555;59.622;16.556;2023-02-15T13:31:38;25.27;;;15.93;;
11004;SDS011;5555;59.622;16.556;2023-02-15T13:34:18;25.53;;;15.73;;
11004;SDS011;5555;59.622;16.556;2023-02-15T13:39:54;23.80;;;17.93;;
11004;SDS011;5555;59.622;16.556;2023-02-15T13:42:31;26.50;;;19.97;;
11004;SDS011;5555;59.622;16.556;2023-02-15T13:47:58;29.47;;;20.57;;
11004;SDS011;5555;59.622;16.556;2023-02-15T13:50:33;29.27;;;19.77;;
11004;SDS011;5555;59.622;16.556;2023-02-15T14:01:46;22.97;;;15.70;;
11004;SDS011;5555;59.622;16.556;2023-02-15T14:04:36;24.63;;;16.13;;
11004;SDS011;5555;59.622;16.556;2023-02-15T14:07:16;23.20;;;15.53;;
11004;SDS011;5555;59.622;16.556;2023-02-15T14:15:54;26.43;;;15.63;;
11004;SDS011;5555;59.622;16.556;2023-02-15T14:18:44;22.80;;;15.53;;
11004;SDS011;5555;59.622;16.556;2023-02-15T14:29:41;21.20;;;14.50;;
11004;SDS011;5555;59.622;16.556;2023-02-15T14:32:32;22.57;;;14.57;;
11004;SDS011;5555;59.622;16.556;2023-02-15T14:35:17;23.53;;;14.83;;
11004;SDS011;5555;59.622;16.556;2023-02-15T14:37:53;22.70;;;14.83;;
11004;SDS011;5555;59.622;16.556;2023-02-15T14:40:35;22.30;;;16.50;;
11004;SDS011;5555;59.622;16.556;2023-02-15T14:48:49;24.07;;;14.93;;
11004;SDS011;5555;59.622;16.556;2023-02-15T14:54:07;21.23;;;16.43;;
11004;SDS011;5555;59.622;16.556;2023-02-15T14:56:34;22.80;;;15.33;;
11004;SDS011;5555;59.622;16.556;2023-02-15T14:59:13;20.17;;;13.57;;
11004;SDS011;5555;59.622;16.556;2023-02-15T15:01:41;22.57;;;16.37;;
11004;SDS011;5555;59.622;16.556;2023-02-15T15:04:22;23.57;;;16.97;;
11004;SDS011;5555;59.622;16.556;2023-02-15T15:06:57;22.83;;;14.87;;
11004;SDS011;5555;59.622;16.556;2023-02-15T15:09:31;20.40;;;14.37;;
11004;SDS011;5555;59.622;16.556;2023-02-15T15:12:15;21.97;;;15.83;;
11004;SDS011;5555;59.622;16.556;2023-02-15T15:14:47;24.13;;;16.77;;
11004;SDS011;5555;59.622;16.556;2023-02-15T15:22:38;22.10;;;15.70;;
11004;SDS011;5555;59.622;16.556;2023-02-15T15:28:00;23.50;;;16.97;;
11004;SDS011;5555;59.622;16.556;2023-02-15T15:49:05;22.77;;;14.47;;
11004;SDS011;5555;59.622;16.556;2023-02-15T15:51:39;22.80;;;14.23;;
11004;SDS011;5555;59.622;16.556;2023-02-15T15:54:11;23.60;;;14.10;;
11004;SDS011;5555;59.622;16.556;2023-02-15T15:56:43;22.70;;;14.23;;
11004;SDS011;5555;59.622;16.556;2023-02-15T15:59:14;23.70;;;13.80;;
11004;SDS011;5555;59.622;16.556;2023-02-15T16:01:45;21.53;;;13.93;;
11004;SDS011;5555;59.622;16.556;2023-02-15T16:04:11;22.77;;;14.17;;
11004;SDS011;5555;59.622;16.556;2023-02-15T16:06:55;21.77;;;16.00;;
11004;SDS011;5555;59.622;16.556;2023-02-15T16:09:39;19.90;;;13.47;;
11004;SDS011;5555;59.622;16.556;2023-02-15T16:12:10;23.60;;;15.87;;
11004;SDS011;5555;59.622;16.556;2023-02-15T16:14:40;19.20;;;13.63;;
11004;SDS011;5555;59.622;16.556;2023-02-15T16:17:13;22.70;;;14.47;;
11004;SDS011;5555;59.622;16.556;2023-02-15T16:19:44;20.93;;;13.90;;
11004;SDS011;5555;59.622;16.556;2023-02-15T16:22:14;24.80;;;14.70;;
11004;SDS011;5555;59.622;16.556;2023-02-15T16:29:54;20.93;;;13.73;;
11004;SDS011;5555;59.622;16.556;2023-02-15T16:37:26;22.80;;;14.33;;
11004;SDS011;5555;59.622;16.556;2023-02-15T16:39:56;21.80;;;13.57;;
11004;SDS011;5555;59.622;16.556;2023-02-15T16:42:23;21.17;;;12.73;;
11004;SDS011;5555;59.622;16.556;2023-02-15T16:44:57;21.40;;;13.63;;
11004;SDS011;5555;59.622;16.556;2023-02-15T16:47:31;19.80;;;15.60;;
11004;SDS011;5555;59.622;16.556;2023-02-15T16:50:03;21.57;;;13.67;;
11004;SDS011;5555;59.622;16.556;2023-02-15T16:52:30;21.43;;;13.50;;
11004;SDS011;5555;59.622;16.556;2023-02-15T16:54:59;20.37;;;16.40;;
11004;SDS011;5555;59.622;16.556;2023-02-15T16:57:28;23.13;;;14.00;;
11004;SDS011;5555;59.622;16.556;2023-02-15T17:00:00;21.83;;;13.97;;
11004;SDS011;5555;59.622;16.556;2023-02-15T17:10:41;20.97;;;15.00;;
11004;SDS011;5555;59.622;16.556;2023-02-15T17:13:14;23.33;;;17.80;;
11004;SDS011;5555;59.622;16.556;2023-02-15T17:15:42;22.63;;;15.70;;
11004;SDS011;5555;59.622;16.556;2023-02-15T17:18:11;21.10;;;14.83;;
11004;SDS011;5555;59.622;16.556;2023-02-15T17:20:41;21.60;;;14.77;;
11004;SDS011;5555;59.622;16.556;2023-02-15T17:25:52;20.27;;;14.10;;
11004;SDS011;5555;59.622;16.556;2023-02-15T17:28:19;23.23;;;16.37;;
11004;SDS011;5555;59.622;16.556;2023-02-15T17:30:47;23.07;;;15.47;;
11004;SDS011;5555;59.622;16.556;2023-02-15T17:33:21;22.10;;;14.83;;
11004;SDS011;5555;59.622;16.556;2023-02-15T17:38:29;21.97;;;17.03;;
11004;SDS011;5555;59.622;16.556;2023-02-15T17:40:54;21.13;;;16.80;;
11004;SDS011;5555;59.622;16.556;2023-02-15T17:43:21;20.67;;;14.87;;
11004;SDS011;5555;59.622;16.556;2023-02-15T17:45:47;25.23;;;15.70;;
11004;SDS011;5555;59.622;16.556;2023-02-15T17:48:19;20.90;;;14.03;;
11004;SDS011;5555;59.622;16.556;2023-02-15T17:50:55;21.07;;;16.67;;
11004;SDS011;5555;59.622;16.556;2023-02-15T17:53:20;18.67;;;14.20;;
11004;SDS011;5555;59.622;16.556;2023-02-15T17:55:46;19.90;;;16.07;;
11004;SDS011;5555;59.622;16.556;2023-02-15T17:58:15;21.97;;;14.93;;
11004;SDS011;5555;59.622;16.556;2023-02-15T18:00:56;21.73;;;14.63;;
11004;SDS011;5555;59.622;16.556;2023-02-15T18:03:44;20.70;;;13.90;;
11004;SDS011;5555;59.622;16.556;2023-02-15T18:06:30;20.10;;;14.47;;
11004;SDS011;5555;59.622;16.556;2023-02-15T18:09:16;21.53;;;15.10;;
11004;SDS011;5555;59.622;16.556;2023-02-15T18:12:02;20.50;;;15.67;;
11004;SDS011;5555;59.622;16.556;2023-02-15T18:14:45;21.47;;;16.27;;
11004;SDS011;5555;59.622;16.556;2023-02-15T18:17:12;21.33;;;14.53;;
11004;SDS011;5555;59.622;16.556;2023-02-15T18:19:38;18.70;;;13.73;;